createdAt,value
2023-10-07T09:22:56.951Z,29.80
2023-10-07T09:25:36.486Z,29.20
2023-10-07T09:28:09.357Z,28.80
2023-10-07T09:30:39.052Z,28.70
2023-10-07T09:33:20.956Z,28.40
2023-10-07T09:36:11.483Z,28.30
2023-10-07T09:38:47.061Z,28.10
2023-10-07T09:41:25.726Z,28.00
2023-10-07T09:43:58.432Z,27.90
2023-10-07T09:49:04.765Z,27.70
2023-10-07T09:51:58.676Z,27.60
2023-10-07T09:55:00.987Z,27.50
2023-10-07T09:57:57.494Z,27.40
2023-10-07T10:01:08.278Z,27.40
2023-10-07T10:04:30.778Z,27.40
2023-10-07T10:07:17.964Z,27.40
2023-10-07T10:10:06.031Z,27.40
2023-10-07T10:13:04.812Z,27.30
2023-10-07T10:15:39.821Z,27.40
2023-10-07T10:18:28.897Z,27.30
2023-10-07T10:21:14.140Z,27.30
2023-10-07T10:23:46.567Z,27.40
2023-10-07T10:26:29.495Z,27.40
2023-10-07T10:29:06.992Z,27.40
2023-10-07T10:31:38.556Z,27.50
2023-10-07T10:34:10.677Z,27.50
2023-10-07T10:36:50.924Z,27.50
2023-10-07T10:39:40.218Z,27.50
2023-10-07T10:42:17.085Z,27.50
2023-10-07T10:44:49.888Z,27.60
2023-10-07T10:47:23.347Z,27.50
2023-10-07T10:49:59.059Z,27.50
2023-10-07T10:52:30.859Z,27.50
2023-10-07T10:55:05.400Z,27.50
2023-10-07T10:57:41.374Z,27.50
2023-10-07T11:00:21.907Z,27.50
2023-10-07T11:02:58.659Z,27.50
2023-10-07T11:05:28.409Z,27.50
2023-10-07T11:07:58.660Z,27.50
2023-10-07T11:10:28.310Z,27.50
2023-10-07T11:12:59.180Z,27.50
2023-10-07T11:15:29.280Z,27.40
2023-10-07T11:18:23.375Z,27.40
2023-10-07T11:20:52.896Z,27.40
2023-10-07T11:23:24.855Z,27.40
2023-10-07T11:25:55.021Z,27.30
2023-10-07T11:28:25.048Z,27.30
2023-10-07T11:30:56.640Z,27.30
2023-10-07T11:33:26.914Z,27.30
2023-10-07T11:36:05.646Z,27.30
2023-10-07T11:38:35.623Z,27.20
2023-10-07T11:41:10.054Z,27.20
2023-10-07T11:43:49.465Z,27.20
2023-10-07T11:46:21.952Z,27.20
2023-10-07T11:48:52.242Z,27.20
2023-10-07T11:51:21.601Z,27.20
2023-10-07T11:53:51.182Z,27.20
2023-10-07T11:56:20.778Z,27.20
2023-10-07T11:58:51.645Z,27.10
2023-10-07T12:01:22.616Z,27.10
2023-10-07T12:03:53.074Z,27.10
2023-10-07T12:06:22.629Z,27.10
2023-10-07T12:08:52.225Z,27.10
2023-10-07T12:11:21.587Z,27.10
2023-10-07T12:13:51.938Z,27.10
2023-10-07T12:16:23.509Z,27.10
2023-10-07T12:18:53.031Z,27.10
2023-10-07T12:21:25.414Z,27.10
2023-10-07T12:23:57.028Z,27.10
2023-10-07T12:26:29.269Z,27.10
2023-10-07T12:28:59.184Z,27.10
2023-10-07T12:31:30.030Z,27.00
2023-10-07T12:33:59.801Z,27.00
2023-10-07T12:36:32.493Z,27.00
2023-10-07T12:39:02.020Z,26.90
2023-10-07T12:41:31.507Z,26.90
2023-10-07T12:44:01.515Z,26.90
2023-10-07T12:46:31.257Z,26.90
2023-10-07T12:49:00.674Z,26.80
2023-10-07T12:51:30.561Z,26.80
2023-10-07T12:54:02.478Z,26.80
2023-10-07T12:56:33.489Z,26.80
2023-10-07T12:59:04.257Z,26.80
2023-10-07T13:01:34.443Z,26.70
2023-10-07T13:04:04.418Z,26.70
2023-10-07T13:06:34.297Z,26.70
2023-10-07T13:09:06.055Z,26.60
2023-10-07T13:11:38.075Z,26.60
2023-10-07T13:14:07.514Z,26.60
2023-10-07T13:16:39.582Z,26.60
2023-10-07T13:19:09.381Z,26.60
2023-10-07T13:21:40.232Z,26.50
2023-10-07T13:24:10.559Z,26.40
2023-10-07T13:26:40.166Z,26.40
2023-10-07T13:29:12.820Z,26.30
2023-10-07T13:31:42.659Z,26.30
2023-10-07T13:34:13.051Z,26.20
2023-10-07T13:36:44.661Z,26.10
2023-10-07T13:39:19.917Z,26.10
2023-10-07T13:41:50.926Z,26.00
2023-10-07T13:44:25.018Z,26.00
2023-10-07T13:46:54.551Z,25.90
2023-10-07T13:49:24.118Z,25.90
2023-10-07T13:51:54.440Z,25.90
2023-10-07T13:54:23.966Z,25.80
2023-10-07T13:56:59.440Z,25.80
2023-10-07T13:59:29.371Z,25.80
2023-10-07T14:02:02.324Z,25.80
2023-10-07T14:04:34.770Z,25.80
2023-10-07T14:07:07.309Z,25.80
2023-10-07T14:09:40.992Z,25.70
2023-10-07T14:12:11.908Z,25.70
2023-10-07T14:14:42.813Z,25.70
2023-10-07T14:17:12.846Z,25.70
2023-10-07T14:19:42.423Z,25.70
2023-10-07T14:22:12.247Z,25.70
2023-10-07T14:24:46.606Z,25.70
2023-10-07T14:27:16.547Z,25.70
2023-10-07T14:29:46.047Z,25.70
2023-10-07T14:32:15.618Z,25.70
2023-10-07T14:34:45.372Z,25.60
2023-10-07T14:37:14.804Z,25.60
2023-10-07T14:39:54.447Z,25.60
2023-10-07T14:42:27.836Z,25.60
2023-10-07T14:44:57.467Z,25.60
2023-10-07T14:47:27.247Z,25.60
2023-10-07T14:49:56.922Z,25.60
2023-10-07T14:52:26.468Z,25.60
2023-10-07T14:54:56.774Z,25.60
2023-10-07T14:57:26.188Z,25.60
2023-10-07T14:59:56.614Z,25.60
2023-10-07T15:02:26.235Z,25.60
2023-10-07T15:04:55.868Z,25.60
2023-10-07T15:07:25.361Z,25.60
2023-10-07T15:09:58.103Z,25.60
2023-10-07T15:12:27.811Z,25.60
2023-10-07T15:14:57.832Z,25.60
2023-10-07T15:17:28.930Z,25.60
2023-10-07T15:19:59.095Z,25.70
2023-10-07T15:22:28.626Z,25.60
2023-10-07T15:25:01.356Z,25.60
2023-10-07T15:27:31.255Z,25.60
2023-10-07T15:30:10.653Z,25.60
2023-10-07T15:32:40.483Z,25.60
2023-10-07T15:35:10.706Z,25.60
2023-10-07T15:37:40.586Z,25.60
2023-10-07T15:40:11.440Z,25.70
2023-10-07T15:42:41.040Z,25.70
2023-10-07T15:45:16.153Z,25.70
2023-10-07T15:47:46.080Z,25.70
2023-10-07T15:50:17.843Z,25.70
2023-10-07T15:52:48.157Z,25.70
2023-10-07T15:55:21.325Z,25.70
2023-10-07T15:57:50.762Z,25.70
2023-10-07T16:00:20.315Z,25.70
2023-10-07T16:02:50.604Z,25.70
2023-10-07T16:05:20.311Z,25.70
2023-10-07T16:07:49.769Z,25.70
2023-10-07T16:10:19.514Z,25.70
2023-10-07T16:12:49.121Z,25.70
2023-10-07T16:15:18.666Z,25.70
2023-10-07T16:17:48.384Z,25.70
2023-10-07T16:20:21.403Z,25.70
2023-10-07T16:23:05.637Z,25.70
2023-10-07T16:25:35.243Z,25.70
